createdAt,value
2022-08-09T00:00:11.445Z,78.87
2022-08-09T00:02:59.090Z,80.18
2022-08-09T00:06:16.457Z,79.20
2022-08-09T00:08:32.532Z,79.23
2022-08-09T00:11:00.635Z,79.45
2022-08-09T00:13:33.186Z,79.53
2022-08-09T00:16:05.418Z,78.44
2022-08-09T00:18:35.634Z,78.94
2022-08-09T00:21:08.666Z,79.97
2022-08-09T00:23:55.162Z,80.02
2022-08-09T00:26:29.759Z,81.37
2022-08-09T00:29:01.621Z,81.77
2022-08-09T00:31:57.362Z,81.68
2022-08-09T00:34:19.118Z,81.47
2022-08-09T00:36:50.879Z,82.06
2022-08-09T00:40:13.263Z,81.56
2022-08-09T00:44:14.578Z,82.81
2022-08-09T00:44:54.865Z,82.73
2022-08-09T00:47:24.714Z,82.83
2022-08-09T00:49:54.894Z,81.40
2022-08-09T00:52:30.098Z,80.80
2022-08-09T00:55:01.803Z,80.55
2022-08-09T00:57:34.228Z,81.55
2022-08-09T01:00:22.068Z,81.16
2022-08-09T01:03:07.990Z,80.71
2022-08-09T01:05:57.323Z,80.57
2022-08-09T01:08:34.854Z,81.93
2022-08-09T01:11:17.792Z,80.84
2022-08-09T01:13:59.549Z,81.04
2022-08-09T01:16:47.503Z,81.59
2022-08-09T01:20:01.938Z,83.80
2022-08-09T01:22:41.894Z,84.41
2022-08-09T01:25:12.324Z,84.29
2022-08-09T01:27:41.083Z,83.63
2022-08-09T01:30:33.431Z,83.97
2022-08-09T01:32:59.027Z,83.54
2022-08-09T01:35:53.323Z,83.77
2022-08-09T01:38:24.735Z,83.46
2022-08-09T01:41:12.117Z,81.53
2022-08-09T01:43:51.580Z,81.12
2022-08-09T01:46:26.858Z,81.22
2022-08-09T01:49:10.662Z,81.36
2022-08-09T01:51:42.886Z,81.46
2022-08-09T01:54:14.307Z,80.98
2022-08-09T01:56:47.243Z,82.13
2022-08-09T01:59:21.388Z,82.95
2022-08-09T02:01:58.432Z,84.19
2022-08-09T02:04:29.636Z,83.75
2022-08-09T02:08:34.641Z,83.12
2022-08-09T02:10:09.400Z,82.94
2022-08-09T02:12:37.704Z,83.63
2022-08-09T02:15:11.773Z,83.62
2022-08-09T02:18:01.733Z,84.90
2022-08-09T02:20:43.232Z,84.51
2022-08-09T02:23:23.208Z,84.03
2022-08-09T02:25:55.679Z,84.16
2022-08-09T02:28:31.643Z,84.71
2022-08-09T02:31:03.757Z,83.89
2022-08-09T02:34:07.061Z,84.73
2022-08-09T02:36:33.823Z,83.90
2022-08-09T02:39:07.226Z,83.06
2022-08-09T02:41:53.501Z,84.71
2022-08-09T02:44:31.269Z,84.61
2022-08-09T02:47:02.386Z,84.22
2022-08-09T02:49:38.424Z,85.05
2022-08-09T02:52:13.624Z,84.50
2022-08-09T02:54:54.552Z,82.82
2022-08-09T02:57:26.798Z,81.83
2022-08-09T03:00:20.739Z,82.27
2022-08-09T03:03:00.229Z,82.82
2022-08-09T03:05:29.150Z,83.30
2022-08-09T03:07:57.623Z,84.97
2022-08-09T03:10:26.936Z,85.03
2022-08-09T03:12:54.995Z,84.23
2022-08-09T03:15:25.214Z,86.32
2022-08-09T03:18:12.492Z,86.21
2022-08-09T03:20:41.423Z,86.10
2022-08-09T03:23:15.099Z,86.05
2022-08-09T03:25:58.339Z,86.46
2022-08-09T03:28:27.148Z,83.31
2022-08-09T03:30:55.653Z,83.27
2022-08-09T03:33:24.312Z,83.30
2022-08-09T03:36:12.819Z,83.33
2022-08-09T03:38:43.044Z,84.63
2022-08-09T03:41:16.268Z,84.85
2022-08-09T03:43:51.829Z,84.61
2022-08-09T03:46:33.102Z,84.09
2022-08-09T03:49:04.361Z,83.66
2022-08-09T03:51:54.160Z,82.52
2022-08-09T03:54:31.167Z,82.38
2022-08-09T03:57:18.026Z,82.57
2022-08-09T03:59:54.957Z,83.92
2022-08-09T04:02:27.015Z,83.48
2022-08-09T04:04:58.679Z,84.71
2022-08-09T04:07:47.858Z,84.90
2022-08-09T04:10:18.440Z,85.02
2022-08-09T04:12:53.472Z,84.78
2022-08-09T04:15:42.807Z,84.95
2022-08-09T04:18:18.098Z,84.96
2022-08-09T04:20:48.046Z,85.02
2022-08-09T04:23:16.920Z,84.79
2022-08-09T04:25:51.854Z,84.81
2022-08-09T04:28:33.218Z,85.10
2022-08-09T04:31:09.510Z,83.94
2022-08-09T04:33:47.211Z,83.38
2022-08-09T04:36:25.699Z,84.13
2022-08-09T04:38:59.119Z,85.06
2022-08-09T04:41:32.098Z,85.03
2022-08-09T04:44:09.562Z,84.95
2022-08-09T04:46:59.543Z,83.51
2022-08-09T04:49:53.846Z,85.57
2022-08-09T04:52:26.763Z,85.90
2022-08-09T04:54:56.338Z,86.26
2022-08-09T04:57:25.151Z,85.86
2022-08-09T04:59:54.223Z,87.22
2022-08-09T05:02:22.985Z,86.26
2022-08-09T05:04:55.194Z,86.57
2022-08-09T05:07:25.017Z,88.17
2022-08-09T05:09:54.923Z,87.94
2022-08-09T05:12:23.157Z,87.62
2022-08-09T05:14:50.600Z,84.58
2022-08-09T05:18:36.680Z,84.19
2022-08-09T05:20:06.766Z,84.06
2022-08-09T05:23:50.955Z,84.22
2022-08-09T05:25:24.897Z,84.39
2022-08-09T05:27:55.544Z,83.47
2022-08-09T05:30:22.934Z,82.81
2022-08-09T05:32:50.966Z,81.87
2022-08-09T05:35:18.383Z,82.88
2022-08-09T05:37:50.453Z,81.89
2022-08-09T05:40:18.478Z,82.38
2022-08-09T05:42:46.086Z,80.98
2022-08-09T05:45:14.315Z,81.96
2022-08-09T05:47:51.586Z,80.97
2022-08-09T05:50:35.985Z,80.66
2022-08-09T05:53:21.394Z,79.29
2022-08-09T05:55:50.630Z,79.72
2022-08-09T05:58:20.220Z,79.78
2022-08-09T06:00:48.161Z,78.68
2022-08-09T06:03:19.903Z,78.71
2022-08-09T06:05:57.519Z,78.12
2022-08-09T06:08:32.078Z,78.61
2022-08-09T06:10:59.227Z,80.35
2022-08-09T06:13:28.300Z,80.79
2022-08-09T06:16:04.686Z,80.63
2022-08-09T06:18:32.682Z,79.77
2022-08-09T06:21:01.699Z,79.52
2022-08-09T06:23:57.553Z,77.86
2022-08-09T06:26:20.245Z,77.64
2022-08-09T06:29:00.163Z,77.98
2022-08-09T06:31:30.631Z,77.25
2022-08-09T06:33:58.719Z,77.11
2022-08-09T06:36:27.141Z,76.28
2022-08-09T06:38:54.890Z,76.04
2022-08-09T06:42:07.544Z,75.45
2022-08-09T06:44:18.328Z,74.93
2022-08-09T06:46:48.257Z,75.08
2022-08-09T06:49:22.679Z,74.05
2022-08-09T06:51:56.445Z,73.43
2022-08-09T06:54:23.804Z,73.67
2022-08-09T06:56:53.857Z,73.30
2022-08-09T07:00:56.084Z,74.05
2022-08-09T07:02:10.648Z,72.29
2022-08-09T07:04:37.667Z,70.99
2022-08-09T07:07:05.197Z,71.11
2022-08-09T07:09:55.521Z,70.81
2022-08-09T07:12:20.334Z,69.26
2022-08-09T07:14:50.823Z,68.35
2022-08-09T07:17:20.165Z,69.35
2022-08-09T07:19:50.800Z,68.50
2022-08-09T07:22:34.485Z,67.26
2022-08-09T07:25:09.663Z,68.29
2022-08-09T07:27:42.584Z,68.37
2022-08-09T07:30:21.661Z,67.52
2022-08-09T07:32:51.822Z,67.60
2022-08-09T07:35:19.467Z,67.27
2022-08-09T07:37:49.178Z,67.59
2022-08-09T07:40:20.742Z,67.36
2022-08-09T07:42:55.671Z,67.45
2022-08-09T07:45:38.114Z,66.81
2022-08-09T07:48:25.935Z,65.17
2022-08-09T07:51:10.355Z,67.26
2022-08-09T07:54:07.711Z,67.21
2022-08-09T07:56:34.334Z,66.14
2022-08-09T07:59:12.415Z,64.60
2022-08-09T08:01:41.131Z,62.90
2022-08-09T08:04:10.325Z,63.68
2022-08-09T08:06:55.642Z,63.17
2022-08-09T08:09:38.683Z,62.85
2022-08-09T08:12:27.721Z,64.21
2022-08-09T08:14:57.045Z,63.50
2022-08-09T08:17:51.918Z,62.92
2022-08-09T08:20:13.063Z,62.63
2022-08-09T08:22:41.330Z,63.65
2022-08-09T08:25:13.459Z,63.68
2022-08-09T08:27:43.013Z,63.64
2022-08-09T08:30:13.730Z,63.81
2022-08-09T08:32:53.959Z,63.69
2022-08-09T08:35:22.414Z,63.63
2022-08-09T08:38:02.272Z,62.96
2022-08-09T08:40:37.696Z,62.90
2022-08-09T08:43:08.798Z,62.68
2022-08-09T08:46:32.016Z,63.08
2022-08-09T08:48:53.629Z,61.48
2022-08-09T08:51:25.264Z,60.92
2022-08-09T08:54:03.550Z,59.30
2022-08-09T08:56:39.593Z,59.79
2022-08-09T08:59:19.839Z,57.61
2022-08-09T09:01:52.983Z,58.59
2022-08-09T09:04:41.177Z,56.27
2022-08-09T09:07:15.861Z,57.03
2022-08-09T09:10:02.503Z,56.47
2022-08-09T09:12:35.585Z,56.12
2022-08-09T09:15:05.648Z,56.25
2022-08-09T09:17:48.168Z,56.29
2022-08-09T09:20:16.676Z,55.65
2022-08-09T09:23:01.847Z,54.92
2022-08-09T09:26:03.591Z,55.12
2022-08-09T09:29:02.568Z,54.53
2022-08-09T09:32:03.668Z,54.06
2022-08-09T09:34:14.616Z,53.83
2022-08-09T09:36:52.884Z,54.31
2022-08-09T09:39:42.860Z,53.13
2022-08-09T09:42:24.454Z,50.03
2022-08-09T09:45:10.025Z,49.39
2022-08-09T09:47:56.554Z,48.72
2022-08-09T09:50:50.858Z,49.02
2022-08-09T09:53:57.791Z,48.90
2022-08-09T09:56:19.971Z,49.54
2022-08-09T09:58:58.742Z,48.43
2022-08-09T10:01:31.306Z,48.17
2022-08-09T10:04:22.906Z,48.35
2022-08-09T10:07:03.494Z,48.35
2022-08-09T10:09:49.102Z,48.97
2022-08-09T10:12:28.526Z,49.48
2022-08-09T10:15:07.512Z,49.89
2022-08-09T10:17:55.839Z,48.05
2022-08-09T10:20:35.570Z,47.30
2022-08-09T10:23:21.160Z,47.41
2022-08-09T10:26:07.470Z,48.43
2022-08-09T10:28:40.973Z,49.39
2022-08-09T10:34:10.692Z,48.10
2022-08-09T10:36:45.289Z,48.61
2022-08-09T10:39:14.209Z,49.11
2022-08-09T10:41:43.483Z,48.27
2022-08-09T10:44:10.768Z,48.17
2022-08-09T10:48:12.852Z,47.16
2022-08-09T10:50:01.146Z,48.11
2022-08-09T10:52:53.462Z,46.49
2022-08-09T10:55:27.805Z,43.98
2022-08-09T10:58:00.336Z,44.18
2022-08-09T11:00:37.521Z,43.58
2022-08-09T11:03:47.350Z,42.35
2022-08-09T11:06:16.015Z,43.14
2022-08-09T11:08:53.143Z,44.13
2022-08-09T11:11:21.818Z,45.82
2022-08-09T11:14:28.090Z,44.91
2022-08-09T11:16:57.212Z,44.36
2022-08-09T11:20:19.858Z,44.00
2022-08-09T11:22:56.668Z,42.44
2022-08-09T11:25:44.995Z,42.98
2022-08-09T11:28:38.908Z,41.67
2022-08-09T11:31:49.118Z,42.41
2022-08-09T11:34:48.979Z,41.05
2022-08-09T11:37:31.353Z,42.64
2022-08-09T11:40:12.056Z,42.62
2022-08-09T11:42:39.279Z,43.31
2022-08-09T11:45:20.449Z,43.62
2022-08-09T11:47:52.725Z,44.15
2022-08-09T11:50:56.622Z,46.52
2022-08-09T11:53:59.797Z,45.02
2022-08-09T11:56:20.711Z,45.33
2022-08-09T11:59:09.713Z,45.87
2022-08-09T12:02:17.807Z,45.73
2022-08-09T12:04:37.463Z,45.03
2022-08-09T12:07:08.278Z,45.83
2022-08-09T12:09:36.438Z,45.95
2022-08-09T12:12:12.954Z,45.30
2022-08-09T12:15:08.399Z,47.19
2022-08-09T12:17:44.864Z,46.36
2022-08-09T12:20:25.460Z,45.84
2022-08-09T12:23:02.714Z,45.17
2022-08-09T12:25:37.484Z,45.13
2022-08-09T12:29:14.404Z,45.82
2022-08-09T12:31:02.842Z,45.81
2022-08-09T12:33:59.512Z,45.87
2022-08-09T12:36:33.567Z,46.13
2022-08-09T12:39:01.658Z,46.40
2022-08-09T12:41:39.219Z,46.21
2022-08-09T12:44:10.223Z,46.52
2022-08-09T12:46:49.012Z,46.49
2022-08-09T12:49:18.370Z,46.17
2022-08-09T12:52:02.739Z,45.75
2022-08-09T12:55:00.786Z,46.38
2022-08-09T12:57:42.761Z,45.50
2022-08-09T13:00:25.831Z,46.07
2022-08-09T13:02:57.388Z,45.74
2022-08-09T13:05:35.555Z,44.28
2022-08-09T13:08:21.185Z,43.86
2022-08-09T13:11:23.338Z,43.42
2022-08-09T13:14:40.974Z,43.99
2022-08-09T13:16:44.878Z,44.25
2022-08-09T13:20:07.485Z,43.62
2022-08-09T13:22:37.982Z,44.95
2022-08-09T13:25:08.069Z,45.20
2022-08-09T13:27:48.260Z,43.45
2022-08-09T13:30:50.556Z,44.05
2022-08-09T13:33:11.687Z,43.21
2022-08-09T13:36:38.658Z,46.42
2022-08-09T13:38:55.510Z,45.34
2022-08-09T13:41:58.574Z,44.85
2022-08-09T13:44:13.667Z,43.40
2022-08-09T13:47:16.882Z,44.55
2022-08-09T13:49:39.656Z,42.33
2022-08-09T13:52:23.587Z,42.48
2022-08-09T13:55:00.952Z,42.89
2022-08-09T13:57:40.250Z,43.62
2022-08-09T14:00:15.483Z,42.96
2022-08-09T14:03:03.155Z,42.75
2022-08-09T14:05:58.389Z,40.25
2022-08-09T14:08:23.109Z,41.23
2022-08-09T14:10:52.347Z,40.88
2022-08-09T14:13:27.868Z,40.69
2022-08-09T14:16:15.421Z,39.87
2022-08-09T14:18:49.792Z,39.63
2022-08-09T14:21:21.087Z,40.66
2022-08-09T14:23:55.580Z,40.24
2022-08-09T14:26:31.800Z,42.00
2022-08-09T14:29:07.471Z,41.38
2022-08-09T14:31:49.669Z,42.38
2022-08-09T14:34:31.910Z,42.02
2022-08-09T14:37:01.995Z,42.38
2022-08-09T14:39:45.979Z,42.69
2022-08-09T14:42:31.827Z,42.62
2022-08-09T14:46:51.421Z,44.38
2022-08-09T14:47:58.924Z,43.35
2022-08-09T14:50:32.860Z,44.03
2022-08-09T14:53:02.269Z,44.07
2022-08-09T14:55:32.548Z,44.22
2022-08-09T14:58:04.668Z,44.74
2022-08-09T15:00:34.396Z,45.12
2022-08-09T15:03:09.016Z,45.67
2022-08-09T15:05:38.925Z,45.53
2022-08-09T15:08:10.381Z,46.14
2022-08-09T15:10:38.228Z,45.67
2022-08-09T15:13:08.950Z,46.57
2022-08-09T15:15:38.970Z,47.18
2022-08-09T15:18:12.396Z,46.98
2022-08-09T15:21:57.002Z,47.11
2022-08-09T15:24:01.905Z,47.44
2022-08-09T15:26:30.767Z,47.10
2022-08-09T15:29:04.080Z,47.65
2022-08-09T15:31:41.507Z,47.85
2022-08-09T15:34:31.608Z,48.08
2022-08-09T15:36:58.244Z,48.17
2022-08-09T15:39:43.970Z,48.29
2022-08-09T15:42:13.236Z,47.69
2022-08-09T15:44:42.140Z,46.99
2022-08-09T15:47:14.219Z,46.65
2022-08-09T15:50:03.523Z,46.28
2022-08-09T15:52:33.012Z,45.62
2022-08-09T15:55:01.052Z,46.26
2022-08-09T15:57:34.502Z,45.98
2022-08-09T16:00:14.048Z,45.60
2022-08-09T16:02:48.155Z,44.53
2022-08-09T16:05:22.245Z,45.34
2022-08-09T16:07:50.687Z,44.95
2022-08-09T16:10:55.261Z,45.08
2022-08-09T16:13:18.639Z,46.23
2022-08-09T16:16:04.454Z,44.16
2022-08-09T16:18:34.189Z,44.36
2022-08-09T16:21:01.222Z,45.21
2022-08-09T16:23:28.240Z,45.35
2022-08-09T16:26:02.514Z,45.84
2022-08-09T16:28:30.108Z,46.36
2022-08-09T16:30:59.664Z,46.73
2022-08-09T16:33:27.519Z,47.10
2022-08-09T16:36:00.942Z,47.13
2022-08-09T16:38:30.192Z,46.92
2022-08-09T16:40:57.225Z,47.17
2022-08-09T16:43:24.786Z,46.85
2022-08-09T16:45:54.420Z,46.72
2022-08-09T16:48:38.948Z,46.68
2022-08-09T16:51:13.906Z,50.31
2022-08-09T16:54:09.033Z,51.06
2022-08-09T16:56:31.061Z,52.04
2022-08-09T16:58:59.683Z,53.03
2022-08-09T17:01:33.923Z,53.20
2022-08-09T17:04:03.211Z,53.76
2022-08-09T17:06:33.520Z,54.36
2022-08-09T17:09:16.231Z,54.98
2022-08-09T17:11:52.409Z,55.53
2022-08-09T17:14:27.915Z,56.27
2022-08-09T17:17:02.658Z,57.40
2022-08-09T17:19:47.212Z,58.34
2022-08-09T17:22:24.229Z,58.77
2022-08-09T17:25:09.893Z,59.71
2022-08-09T17:27:49.254Z,60.56
2022-08-09T17:30:26.413Z,61.50
2022-08-09T17:33:00.678Z,62.15
2022-08-09T17:35:35.607Z,62.91
2022-08-09T17:38:30.539Z,63.06
2022-08-09T17:40:56.149Z,63.52
2022-08-09T17:43:33.891Z,63.85
2022-08-09T17:46:06.322Z,64.05
2022-08-09T17:48:51.924Z,64.47
2022-08-09T17:51:20.745Z,64.58
2022-08-09T17:53:53.318Z,64.69
2022-08-09T17:56:29.165Z,65.12
2022-08-09T17:59:11.983Z,65.15
2022-08-09T18:02:06.731Z,65.58
2022-08-09T18:04:31.670Z,65.65
2022-08-09T18:07:00.129Z,65.61
2022-08-09T18:09:40.498Z,65.78
2022-08-09T18:12:17.060Z,65.61
2022-08-09T18:14:53.769Z,66.17
2022-08-09T18:17:27.288Z,65.83
2022-08-09T18:20:57.442Z,66.23
2022-08-09T18:22:59.863Z,66.40
2022-08-09T18:25:51.075Z,66.67
2022-08-09T18:30:35.443Z,66.79
2022-08-09T18:31:11.927Z,67.01
2022-08-09T18:33:40.246Z,67.38
2022-08-09T18:36:14.374Z,67.71
2022-08-09T18:38:57.303Z,67.80
2022-08-09T18:41:28.379Z,67.86
2022-08-09T18:43:55.603Z,68.26
2022-08-09T18:46:46.993Z,68.56
2022-08-09T18:49:09.905Z,68.99
2022-08-09T18:51:38.461Z,69.07
2022-08-09T18:54:29.515Z,69.44
2022-08-09T18:57:05.355Z,70.10
2022-08-09T18:59:51.296Z,70.40
2022-08-09T19:02:20.768Z,70.36
2022-08-09T19:05:04.053Z,70.92
2022-08-09T19:07:38.545Z,71.21
2022-08-09T19:10:13.708Z,71.60
2022-08-09T19:12:45.644Z,71.87
2022-08-09T19:15:22.745Z,72.06
2022-08-09T19:17:54.741Z,72.64
2022-08-09T19:20:23.808Z,72.90
2022-08-09T19:22:54.487Z,73.13
2022-08-09T19:25:41.826Z,73.56
2022-08-09T19:28:13.019Z,73.97
2022-08-09T19:30:44.625Z,74.20
2022-08-09T19:33:19.513Z,74.00
2022-08-09T19:35:58.328Z,74.36
2022-08-09T19:38:28.223Z,74.34
2022-08-09T19:40:59.705Z,74.51
2022-08-09T19:44:00.807Z,74.62
2022-08-09T19:46:34.086Z,74.93
2022-08-09T19:50:07.069Z,75.03
2022-08-09T19:51:56.069Z,75.34
2022-08-09T19:54:25.435Z,75.12
2022-08-09T19:56:54.190Z,75.69
2022-08-09T19:59:57.958Z,76.34
2022-08-09T20:04:10.449Z,76.20
2022-08-09T20:05:10.276Z,76.08
2022-08-09T20:08:00.079Z,76.35
2022-08-09T20:10:34.938Z,76.76
2022-08-09T20:13:06.327Z,77.32
2022-08-09T20:16:33.520Z,78.02
2022-08-09T20:18:23.179Z,77.25
2022-08-09T20:20:56.991Z,78.21
2022-08-09T20:23:38.792Z,78.52
2022-08-09T20:26:08.592Z,78.21
2022-08-09T20:28:48.535Z,78.11
2022-08-09T20:31:17.511Z,78.35
2022-08-09T20:33:45.237Z,78.54
2022-08-09T20:36:32.023Z,79.59
2022-08-09T20:39:28.465Z,79.57
2022-08-09T20:41:49.903Z,79.09
2022-08-09T20:44:17.333Z,79.06
2022-08-09T20:46:54.377Z,78.80
2022-08-09T20:49:21.610Z,78.86
2022-08-09T20:51:50.821Z,79.52
2022-08-09T20:54:18.310Z,80.08
2022-08-09T20:56:49.381Z,79.93
2022-08-09T20:59:50.057Z,80.04
2022-08-09T21:02:11.544Z,80.84
2022-08-09T21:05:55.076Z,80.76
2022-08-09T21:07:40.165Z,81.69
2022-08-09T21:10:08.146Z,81.89
2022-08-09T21:12:37.699Z,81.90
2022-08-09T21:15:05.425Z,82.02
2022-08-09T21:18:22.981Z,81.87
2022-08-09T21:20:30.238Z,82.65
2022-08-09T21:22:59.444Z,82.99
2022-08-09T21:25:56.275Z,84.26
2022-08-09T21:28:35.172Z,84.34
2022-08-09T21:31:17.556Z,84.63
2022-08-09T21:33:52.362Z,84.67
2022-08-09T21:36:22.948Z,84.47
2022-08-09T21:38:58.102Z,84.12
2022-08-09T21:42:04.080Z,83.74
2022-08-09T21:44:34.455Z,84.10
2022-08-09T21:47:04.148Z,84.88
2022-08-09T21:49:39.882Z,85.12
2022-08-09T21:52:17.628Z,85.80
2022-08-09T21:55:03.512Z,86.20
2022-08-09T21:57:38.413Z,85.86
2022-08-09T22:00:33.742Z,86.73
2022-08-09T22:03:04.778Z,86.87
2022-08-09T22:05:36.921Z,87.13
2022-08-09T22:08:12.792Z,87.19
2022-08-09T22:11:49.138Z,87.88
2022-08-09T22:13:31.406Z,87.83
2022-08-09T22:16:01.555Z,88.31
2022-08-09T22:18:33.065Z,88.25
2022-08-09T22:21:01.046Z,88.10
2022-08-09T22:23:35.322Z,88.63
2022-08-09T22:26:08.370Z,89.22
2022-08-09T22:28:47.318Z,89.37
2022-08-09T22:31:21.210Z,90.02
2022-08-09T22:33:49.001Z,90.51
2022-08-09T22:36:22.400Z,90.81
2022-08-09T22:38:49.466Z,91.50
2022-08-09T22:41:16.472Z,90.63
2022-08-09T22:44:02.362Z,90.09
2022-08-09T22:48:15.374Z,89.79
2022-08-09T22:49:20.104Z,90.36
2022-08-09T22:51:56.358Z,90.89
2022-08-09T22:54:23.629Z,90.98
2022-08-09T22:56:57.132Z,91.57
2022-08-09T22:59:56.092Z,91.98
2022-08-09T23:02:15.885Z,92.28
2022-08-09T23:04:53.336Z,92.13
2022-08-09T23:08:22.330Z,92.31
2022-08-09T23:10:30.774Z,92.12
2022-08-09T23:12:58.905Z,91.93
2022-08-09T23:15:27.378Z,92.12
2022-08-09T23:17:55.170Z,92.37
2022-08-09T23:20:22.832Z,92.73
2022-08-09T23:22:49.731Z,92.65
2022-08-09T23:25:16.608Z,93.00
2022-08-09T23:28:14.125Z,93.64
2022-08-09T23:30:30.850Z,93.26
2022-08-09T23:32:57.990Z,93.67
2022-08-09T23:35:24.848Z,93.81
2022-08-09T23:37:51.674Z,94.22
2022-08-09T23:40:18.738Z,95.06
2022-08-09T23:42:45.584Z,94.09
2022-08-09T23:45:37.019Z,94.59
2022-08-09T23:47:59.551Z,94.27
2022-08-09T23:50:26.461Z,94.96
2022-08-09T23:52:53.952Z,95.50
2022-08-09T23:55:22.012Z,95.09
2022-08-09T23:58:07.843Z,95.29
